Time;durP1;ratioP1;P1;durP2;ratioP2;P2;SDS_P1;SDS_P2;PMS_P1;PMS_P2;Temp;Humidity;BMP_temperature;BMP_pressure;BME280_temperature;BME280_humidity;BME280_pressure;Samples;Min_cycle;Max_cycle;Signal;HPM_P1;HPM_P2
2022/01/02 00:00:09;;;;;;;15.03;9.83;;;;;;;-141.29;100.00;58932.97;5074034;28;20541;-74
2022/01/02 00:02:38;;;;;;;13.70;9.77;;;;;;;-141.29;100.00;58932.97;5074631;28;20447;-74
2022/01/02 00:05:10;;;;;;;14.33;9.50;;;;;;;-141.29;100.00;58932.97;5073857;28;20442;-75
2022/01/02 00:07:43;;;;;;;13.63;9.73;;;;;;;-141.29;100.00;58932.97;5073919;28;20492;-75
2022/01/02 00:10:14;;;;;;;15.63;9.87;;;;;;;-141.29;100.00;58932.97;5073302;28;20439;-76
2022/01/02 00:12:50;;;;;;;14.37;9.47;;;;;;;-141.29;100.00;58932.97;5073501;28;20458;-74
2022/01/02 00:15:20;;;;;;;12.57;9.37;;;;;;;-141.29;100.00;58932.97;5073863;28;20438;-75
2022/01/02 00:18:06;;;;;;;11.87;8.20;;;;;;;-141.29;100.00;58932.97;5073513;28;20482;-77
2022/01/02 00:23:20;;;;;;;12.87;8.93;;;;;;;-141.29;100.00;58932.97;5073392;28;20988;-76
2022/01/02 00:25:53;;;;;;;16.20;8.83;;;;;;;-141.29;100.00;58932.97;5073802;28;20512;-76
2022/01/02 00:28:20;;;;;;;13.40;8.93;;;;;;;-141.29;100.00;58932.97;5073906;28;20500;-75
2022/01/02 00:30:49;;;;;;;11.70;8.70;;;;;;;-141.29;100.00;58932.97;5073802;28;20435;-75
2022/01/02 00:33:16;;;;;;;14.27;9.27;;;;;;;-141.29;100.00;58932.97;5073349;28;20442;-73
2022/01/02 00:35:46;;;;;;;13.47;8.73;;;;;;;-141.29;100.00;58932.97;5073520;28;20517;-77
2022/01/02 00:38:20;;;;;;;14.63;9.37;;;;;;;-141.29;100.00;58932.97;5073345;28;20438;-76
2022/01/02 00:40:50;;;;;;;14.20;9.37;;;;;;;-141.29;100.00;58932.97;5073758;28;20844;-74
2022/01/02 00:43:24;;;;;;;12.90;8.60;;;;;;;-141.29;100.00;58932.97;5072931;28;20551;-77
2022/01/02 00:45:53;;;;;;;12.93;8.53;;;;;;;-141.29;100.00;58932.97;5072850;28;20873;-74
2022/01/02 00:48:28;;;;;;;12.60;9.30;;;;;;;-141.29;100.00;58932.97;5072227;28;20449;-74
2022/01/02 00:51:04;;;;;;;15.40;9.93;;;;;;;-141.29;100.00;58932.97;5073029;28;20488;-74
2022/01/02 00:53:38;;;;;;;12.73;9.57;;;;;;;-141.29;100.00;58932.97;5072884;28;20445;-74
2022/01/02 00:56:06;;;;;;;13.50;9.43;;;;;;;-141.29;100.00;58932.97;5073490;28;20535;-73
2022/01/02 00:58:59;;;;;;;13.93;9.40;;;;;;;-141.29;100.00;58932.97;5072680;28;20434;-74
2022/01/02 01:01:41;;;;;;;12.63;8.90;;;;;;;-141.29;100.00;58932.97;5071502;28;20446;-75
2022/01/02 01:04:18;;;;;;;13.77;9.07;;;;;;;-141.29;100.00;58932.97;5073154;28;20423;-75
2022/01/02 01:09:32;;;;;;;13.47;9.70;;;;;;;-141.29;100.00;58932.97;5072632;28;20446;-75
2022/01/02 01:12:02;;;;;;;13.07;8.50;;;;;;;-141.29;100.00;58932.97;5071072;28;20446;-77
2022/01/02 01:14:34;;;;;;;11.83;9.00;;;;;;;-141.29;100.00;58932.97;5072590;28;20785;-77
2022/01/02 01:17:02;;;;;;;10.90;8.63;;;;;;;-141.29;100.00;58932.97;5072259;28;20494;-77
2022/01/02 01:19:29;;;;;;;14.73;9.40;;;;;;;-141.29;100.00;58932.97;5072307;28;20438;-74
2022/01/02 01:21:59;;;;;;;15.13;9.00;;;;;;;-141.29;100.00;58932.97;5072188;28;20423;-75
2022/01/02 01:24:29;;;;;;;13.93;9.57;;;;;;;-141.29;100.00;58932.97;5072361;28;20451;-74
2022/01/02 01:26:58;;;;;;;14.27;9.43;;;;;;;-141.29;100.00;58932.97;5072501;28;20450;-75
2022/01/02 01:29:27;;;;;;;11.27;8.83;;;;;;;-141.29;100.00;58932.97;5072635;28;20439;-75
2022/01/02 01:31:55;;;;;;;11.67;8.27;;;;;;;-141.29;100.00;58932.97;5072430;28;20504;-75
2022/01/02 01:34:23;;;;;;;12.83;8.17;;;;;;;-141.29;100.00;58932.97;5072190;28;20446;-75
2022/01/02 01:36:51;;;;;;;11.50;8.50;;;;;;;-141.29;100.00;58932.97;5070795;28;20484;-74
2022/01/02 01:39:27;;;;;;;10.97;8.57;;;;;;;-141.29;100.00;58932.97;5072362;28;20848;-76
2022/01/02 01:42:05;;;;;;;11.13;8.50;;;;;;;-141.29;100.00;58932.97;5072420;28;20858;-75
2022/01/02 01:44:41;;;;;;;11.57;8.20;;;;;;;-141.29;100.00;58932.97;5072291;28;20478;-74
2022/01/02 01:47:10;;;;;;;11.57;8.80;;;;;;;-141.29;100.00;58932.97;5072285;28;20453;-75
2022/01/02 01:49:37;;;;;;;12.10;8.17;;;;;;;-141.29;100.00;58932.97;5072235;28;20439;-76
2022/01/02 01:52:06;;;;;;;13.50;8.07;;;;;;;-141.29;100.00;58932.97;5071166;28;20496;-75
2022/01/02 01:54:38;;;;;;;12.97;8.03;;;;;;;-141.29;100.00;58932.97;5072049;28;20439;-75
2022/01/02 01:57:07;;;;;;;11.03;8.23;;;;;;;-141.29;100.00;58932.97;5072009;28;20523;-76
2022/01/02 01:59:34;;;;;;;12.97;7.87;;;;;;;-141.29;100.00;58932.97;5071980;28;20443;-74
2022/01/02 02:02:02;;;;;;;12.87;8.17;;;;;;;-141.29;100.00;58932.97;5071695;28;20463;-75
2022/01/02 02:04:33;;;;;;;10.63;8.23;;;;;;;-141.29;100.00;58932.97;5071908;28;20450;-74
2022/01/02 02:07:02;;;;;;;19.73;9.03;;;;;;;-141.29;100.00;58932.97;5077173;28;20514;-74
2022/01/02 02:09:43;;;;;;;10.50;7.90;;;;;;;-141.29;100.00;58932.97;5076217;28;20446;-76
2022/01/02 02:12:14;;;;;;;11.73;8.20;;;;;;;-141.29;100.00;58932.97;5072186;28;20967;-76
2022/01/02 02:14:42;;;;;;;12.40;8.67;;;;;;;-141.29;100.00;58932.97;5070635;28;20453;-74
2022/01/02 02:17:11;;;;;;;10.33;8.00;;;;;;;-141.29;100.00;58932.97;5071749;28;20512;-76
2022/01/02 02:19:39;;;;;;;11.40;7.83;;;;;;;-141.29;100.00;58932.97;5070467;28;20957;-76
2022/01/02 02:22:09;;;;;;;12.23;8.70;;;;;;;-141.29;100.00;58932.97;5071812;28;20944;-75
2022/01/02 02:24:37;;;;;;;11.10;8.03;;;;;;;-141.29;100.00;58932.97;5071963;28;20438;-74
2022/01/02 02:27:05;;;;;;;12.53;9.13;;;;;;;-141.29;100.00;58932.97;5071763;28;20459;-75
2022/01/02 02:29:34;;;;;;;13.27;8.90;;;;;;;-141.29;100.00;58932.97;5071725;28;20450;-75
2022/01/02 02:32:03;;;;;;;13.07;8.77;;;;;;;-141.29;100.00;58932.97;5073242;28;20503;-74
2022/01/02 02:34:30;;;;;;;10.43;8.17;;;;;;;-141.29;100.00;58932.97;5075701;28;20442;-76
2022/01/02 02:37:00;;;;;;;10.73;8.70;;;;;;;-141.29;100.00;58932.97;5075490;28;20527;-75
2022/01/02 02:39:33;;;;;;;11.67;8.53;;;;;;;-141.29;100.00;58932.97;5075519;28;20826;-74
2022/01/02 02:42:14;;;;;;;12.40;8.60;;;;;;;-141.29;100.00;58932.97;5075342;28;20933;-74
2022/01/02 02:44:42;;;;;;;11.23;8.30;;;;;;;-141.29;100.00;58932.97;5075856;28;20478;-74
2022/01/02 02:50:00;;;;;;;10.93;8.40;;;;;;;-141.29;100.00;58932.97;5076077;28;20434;-74
2022/01/02 02:52:39;;;;;;;12.00;8.73;;;;;;;-141.29;100.00;58932.97;5075537;28;20443;-73
2022/01/02 02:55:31;;;;;;;13.50;8.60;;;;;;;-141.29;100.00;58932.97;5075832;28;20434;-75
2022/01/02 02:58:17;;;;;;;11.33;8.30;;;;;;;-141.29;100.00;58932.97;5074883;28;20992;-76
2022/01/02 03:00:50;;;;;;;10.37;7.90;;;;;;;-141.29;100.00;58932.97;5075158;28;20458;-77
2022/01/02 03:03:18;;;;;;;11.00;8.27;;;;;;;-141.29;100.00;58932.97;5074766;28;20439;-75
2022/01/02 03:05:48;;;;;;;11.73;8.57;;;;;;;-141.29;100.00;58932.97;5075038;28;20430;-75
2022/01/02 03:08:18;;;;;;;10.47;8.23;;;;;;;-141.29;100.00;58932.97;5074871;28;20443;-76
2022/01/02 03:10:47;;;;;;;11.07;8.33;;;;;;;-141.29;100.00;58932.97;5074948;28;20496;-74
2022/01/02 03:13:14;;;;;;;11.03;8.37;;;;;;;-141.29;100.00;58932.97;5074863;28;20426;-76
2022/01/02 03:15:43;;;;;;;9.67;8.10;;;;;;;-141.29;100.00;58932.97;5074883;28;20965;-75
2022/01/02 03:18:15;;;;;;;12.27;8.30;;;;;;;-141.29;100.00;58932.97;5074833;28;20543;-73
2022/01/02 03:20:45;;;;;;;12.47;8.50;;;;;;;-141.29;100.00;58932.97;5075631;28;20438;-74
2022/01/02 03:23:13;;;;;;;12.73;8.63;;;;;;;-141.29;100.00;58932.97;5074920;28;20446;-73
2022/01/02 03:25:41;;;;;;;12.17;9.20;;;;;;;-141.29;100.00;58932.97;5074972;28;20511;-77
2022/01/02 03:28:11;;;;;;;12.37;8.70;;;;;;;-141.29;100.00;58932.97;5074493;28;20517;-75
2022/01/02 03:30:43;;;;;;;12.13;8.83;;;;;;;-141.29;100.00;58932.97;5074750;28;20887;-75
2022/01/02 03:33:11;;;;;;;13.10;8.73;;;;;;;-141.29;100.00;58932.97;5073333;28;20434;-75
2022/01/02 03:35:42;;;;;;;11.40;8.13;;;;;;;-141.29;100.00;58932.97;5074204;28;20454;-73
2022/01/02 03:38:11;;;;;;;11.67;8.57;;;;;;;-141.29;100.00;58932.97;5074172;28;20498;-74
2022/01/02 03:40:46;;;;;;;11.13;8.27;;;;;;;-141.29;100.00;58932.97;5074231;28;20492;-75
2022/01/02 03:43:22;;;;;;;11.30;8.27;;;;;;;-141.29;100.00;58932.97;5072585;28;20490;-75
2022/01/02 03:45:50;;;;;;;8.93;7.07;;;;;;;-141.29;100.00;58932.97;5074334;28;20438;-75
2022/01/02 03:48:19;;;;;;;13.00;8.17;;;;;;;-141.29;100.00;58932.97;5074186;28;20861;-74
2022/01/02 03:50:48;;;;;;;10.00;7.07;;;;;;;-141.29;100.00;58932.97;5074663;28;20437;-74
2022/01/02 03:53:15;;;;;;;11.73;8.03;;;;;;;-141.29;100.00;58932.97;5074335;28;20500;-76
2022/01/02 03:55:44;;;;;;;10.33;7.70;;;;;;;-141.29;100.00;58932.97;5074105;28;20431;-76
2022/01/02 03:58:11;;;;;;;12.40;8.03;;;;;;;-141.29;100.00;58932.97;5073379;28;20478;-75
2022/01/02 04:00:40;;;;;;;12.93;8.30;;;;;;;-141.29;100.00;58932.97;5072661;28;20441;-74
2022/01/02 04:03:08;;;;;;;11.67;7.57;;;;;;;-141.29;100.00;58932.97;5074023;28;20878;-75
2022/01/02 04:05:36;;;;;;;13.03;8.00;;;;;;;-141.29;100.00;58932.97;5074029;28;20530;-74
2022/01/02 04:08:06;;;;;;;9.47;7.30;;;;;;;-141.29;100.00;58932.97;5073836;28;20431;-76
2022/01/02 04:10:33;;;;;;;12.77;7.97;;;;;;;-141.29;100.00;58932.97;5073948;28;20505;-75
2022/01/02 04:13:01;;;;;;;10.27;7.63;;;;;;;-141.29;100.00;58932.97;5073675;28;20880;-74
2022/01/02 04:15:28;;;;;;;11.23;8.20;;;;;;;-141.29;100.00;58932.97;5073698;28;20434;-75
2022/01/02 04:18:01;;;;;;;10.77;7.53;;;;;;;-141.29;100.00;58932.97;5074273;28;20486;-74
2022/01/02 04:20:31;;;;;;;13.10;8.43;;;;;;;-141.29;100.00;58932.97;5079749;28;20504;-75
2022/01/02 04:23:00;;;;;;;13.30;7.70;;;;;;;-141.29;100.00;58932.97;5072557;28;20541;-75
2022/01/02 04:25:31;;;;;;;10.73;7.83;;;;;;;-141.29;100.00;58932.97;5074124;28;20482;-76
2022/01/02 04:27:58;;;;;;;10.40;7.63;;;;;;;-141.29;100.00;58932.97;5073594;28;20447;-75
2022/01/02 04:30:26;;;;;;;11.07;7.97;;;;;;;-141.29;100.00;58932.97;5073740;28;20431;-75
2022/01/02 04:33:07;;;;;;;11.03;7.70;;;;;;;-141.29;100.00;58932.97;5073940;28;20446;-74
2022/01/02 04:35:34;;;;;;;13.03;8.33;;;;;;;-141.29;100.00;58932.97;5073610;28;20438;-75
2022/01/02 04:38:04;;;;;;;14.60;10.03;;;;;;;-141.29;100.00;58932.97;5073201;28;20547;-76
2022/01/02 04:40:31;;;;;;;15.93;9.77;;;;;;;-141.29;100.00;58932.97;5072893;28;20906;-76
2022/01/02 04:43:01;;;;;;;11.70;8.87;;;;;;;-141.29;100.00;58932.97;5073207;28;20474;-73
2022/01/02 04:45:29;;;;;;;10.83;8.90;;;;;;;-141.29;100.00;58932.97;5073244;28;20443;-77
2022/01/02 04:48:00;;;;;;;11.60;8.50;;;;;;;-141.29;100.00;58932.97;5073252;28;20998;-74
2022/01/02 04:50:28;;;;;;;11.13;8.00;;;;;;;-141.29;100.00;58932.97;5072798;28;20447;-76
2022/01/02 04:52:56;;;;;;;13.00;8.73;;;;;;;-141.29;100.00;58932.97;5073658;28;20434;-75
2022/01/02 04:55:26;;;;;;;12.13;8.00;;;;;;;-141.29;100.00;58932.97;5071404;28;20452;-75
2022/01/02 04:57:53;;;;;;;11.63;8.20;;;;;;;-141.29;100.00;58932.97;5073004;28;20474;-75
2022/01/02 05:00:20;;;;;;;11.23;8.03;;;;;;;-141.29;100.00;58932.97;5072961;28;20446;-76
2022/01/02 05:02:49;;;;;;;11.27;7.93;;;;;;;-141.29;100.00;58932.97;5073029;28;20442;-76
2022/01/02 05:05:20;;;;;;;10.83;8.10;;;;;;;-141.29;100.00;58932.97;5072823;28;20442;-76
2022/01/02 05:07:49;;;;;;;11.70;8.60;;;;;;;-141.29;100.00;58932.97;5072983;28;20430;-74
2022/01/02 05:10:28;;;;;;;11.37;8.67;;;;;;;-141.29;100.00;58932.97;5072414;28;20450;-75
2022/01/02 05:12:58;;;;;;;9.90;7.97;;;;;;;-141.29;100.00;58932.97;5073118;28;20439;-76
2022/01/02 05:15:26;;;;;;;12.70;8.20;;;;;;;-141.29;100.00;58932.97;5071392;28;20439;-75
2022/01/02 05:18:07;;;;;;;12.30;8.20;;;;;;;-141.29;100.00;58932.97;5072399;28;20478;-75
2022/01/02 05:20:34;;;;;;;11.10;7.87;;;;;;;-141.29;100.00;58932.97;5072322;28;20508;-76
2022/01/02 05:23:03;;;;;;;13.83;8.33;;;;;;;-141.29;100.00;58932.97;5072341;28;20935;-75
2022/01/02 05:25:30;;;;;;;11.67;7.80;;;;;;;-141.29;100.00;58932.97;5072641;28;20505;-74
2022/01/02 05:27:59;;;;;;;9.73;7.83;;;;;;;-141.29;100.00;58932.97;5072535;28;20442;-75
2022/01/02 05:30:26;;;;;;;11.50;8.47;;;;;;;-141.29;100.00;58932.97;5072288;28;20439;-75
2022/01/02 05:32:53;;;;;;;12.27;8.87;;;;;;;-141.29;100.00;58932.97;5073075;28;20443;-74
2022/01/02 05:35:21;;;;;;;10.47;8.10;;;;;;;-141.29;100.00;58932.97;5072250;28;20554;-75
2022/01/02 05:37:48;;;;;;;11.37;8.27;;;;;;;-141.29;100.00;58932.97;5071971;28;20482;-74
2022/01/02 05:40:17;;;;;;;10.37;7.67;;;;;;;-141.29;100.00;58932.97;5072022;28;20868;-75
2022/01/02 05:42:44;;;;;;;11.00;8.17;;;;;;;-141.29;100.00;58932.97;5072168;28;20458;-75
2022/01/02 05:45:12;;;;;;;12.10;8.20;;;;;;;-141.29;100.00;58932.97;5071775;28;20447;-76
2022/01/02 05:47:40;;;;;;;12.13;8.60;;;;;;;-141.29;100.00;58932.97;5070843;28;20426;-73
2022/01/02 05:50:08;;;;;;;11.20;8.30;;;;;;;-141.29;100.00;58932.97;5071865;28;20438;-75
2022/01/02 05:52:35;;;;;;;11.43;8.13;;;;;;;-141.29;100.00;58932.97;5071900;28;20863;-74
2022/01/02 05:55:02;;;;;;;13.20;9.03;;;;;;;-141.29;100.00;58932.97;5071951;28;20496;-74
2022/01/02 05:57:32;;;;;;;11.50;8.10;;;;;;;-141.29;100.00;58932.97;5072100;28;20451;-74
2022/01/02 05:59:59;;;;;;;12.73;8.80;;;;;;;-141.29;100.00;58932.97;5071704;28;20475;-73
2022/01/02 06:02:26;;;;;;;12.30;8.30;;;;;;;-141.29;100.00;58932.97;5072139;28;20438;-74
2022/01/02 06:04:56;;;;;;;13.03;9.17;;;;;;;-141.29;100.00;58932.97;5083575;28;20447;-72
2022/01/02 06:07:23;;;;;;;12.30;8.93;;;;;;;-141.29;100.00;58932.97;5085591;28;20465;-72
2022/01/02 06:09:52;;;;;;;12.67;8.80;;;;;;;-141.29;100.00;58932.97;5076370;28;20447;-74
2022/01/02 06:12:23;;;;;;;12.93;9.13;;;;;;;-141.29;100.00;58932.97;5071578;28;20470;-75
2022/01/02 06:14:53;;;;;;;13.00;9.60;;;;;;;-141.29;100.00;58932.97;5072834;28;20441;-75
2022/01/02 06:17:20;;;;;;;12.37;8.47;;;;;;;-141.29;100.00;58932.97;5071613;28;20949;-74
2022/01/02 06:19:47;;;;;;;13.70;9.17;;;;;;;-141.29;100.00;58932.97;5071830;28;20438;-73
2022/01/02 06:22:17;;;;;;;11.80;8.17;;;;;;;-141.29;100.00;58932.97;5071728;28;20446;-77
2022/01/02 06:24:45;;;;;;;14.93;9.07;;;;;;;-141.29;100.00;58932.97;5071590;28;20460;-74
2022/01/02 06:27:13;;;;;;;13.80;9.10;;;;;;;-141.29;100.00;58932.97;5071383;28;20438;-77
2022/01/02 06:29:40;;;;;;;14.73;9.37;;;;;;;-141.29;100.00;58932.97;5071998;28;20442;-75
2022/01/02 06:32:10;;;;;;;12.87;8.67;;;;;;;-141.29;100.00;58932.97;5078088;28;20463;-74
2022/01/02 06:34:38;;;;;;;11.90;8.17;;;;;;;-141.29;100.00;58932.97;5071899;28;20431;-73
2022/01/02 06:37:06;;;;;;;10.70;7.83;;;;;;;-141.29;100.00;58932.97;5071285;28;20434;-75
2022/01/02 06:39:34;;;;;;;12.43;8.87;;;;;;;-141.29;100.00;58932.97;5071752;28;20543;-76
2022/01/02 06:42:02;;;;;;;12.17;8.00;;;;;;;-141.29;100.00;58932.97;5071545;28;20443;-75
2022/01/02 06:44:29;;;;;;;10.33;7.97;;;;;;;-141.29;100.00;58932.97;5071360;28;21013;-76
2022/01/02 06:46:58;;;;;;;11.90;8.10;;;;;;;-141.29;100.00;58932.97;5071575;28;21002;-75
2022/01/02 06:49:29;;;;;;;10.30;7.80;;;;;;;-141.29;100.00;58932.97;5071526;28;20531;-74
2022/01/02 06:51:58;;;;;;;12.20;8.10;;;;;;;-141.29;100.00;58932.97;5071493;28;20433;-74
2022/01/02 06:54:25;;;;;;;11.53;8.03;;;;;;;-141.29;100.00;58932.97;5071340;28;20455;-73
2022/01/02 06:56:52;;;;;;;10.97;8.23;;;;;;;-141.29;100.00;58932.97;5071453;28;20438;-74
2022/01/02 06:59:19;;;;;;;13.93;8.87;;;;;;;-141.29;100.00;58932.97;5072258;28;20560;-73
2022/01/02 07:01:46;;;;;;;9.40;7.33;;;;;;;-141.29;100.00;58932.97;5072954;28;20524;-75
2022/01/02 07:04:13;;;;;;;11.40;7.93;;;;;;;-141.29;100.00;58932.97;5071457;28;20488;-76
2022/01/02 07:06:44;;;;;;;11.37;7.30;;;;;;;-141.29;100.00;58932.97;5071243;28;20841;-73
2022/01/02 07:09:12;;;;;;;11.33;7.90;;;;;;;-141.29;100.00;58932.97;5072077;28;20437;-75
2022/01/02 07:11:39;;;;;;;11.77;7.77;;;;;;;-141.29;100.00;58932.97;5070023;28;20464;-73
2022/01/02 07:14:07;;;;;;;13.17;7.47;;;;;;;-141.29;100.00;58932.97;5071036;28;20445;-74
2022/01/02 07:16:36;;;;;;;10.90;7.67;;;;;;;-141.29;100.00;58932.97;5071090;28;20438;-73
2022/01/02 07:19:04;;;;;;;9.87;7.07;;;;;;;-141.29;100.00;58932.97;5074050;28;20490;-74
2022/01/02 07:21:32;;;;;;;10.03;7.30;;;;;;;-141.29;100.00;58932.97;5074599;28;20496;-75
2022/01/02 07:24:00;;;;;;;11.37;7.60;;;;;;;-141.29;100.00;58932.97;5075244;28;20563;-74
2022/01/02 07:26:29;;;;;;;8.17;6.17;;;;;;;-141.29;100.00;58932.97;5075402;28;20434;-75
2022/01/02 07:29:03;;;;;;;10.77;7.13;;;;;;;-141.29;100.00;58932.97;5074729;28;20431;-76
2022/01/02 07:31:30;;;;;;;7.67;6.27;;;;;;;-141.29;100.00;58932.97;5074892;28;20450;-76
2022/01/02 07:33:57;;;;;;;9.40;7.23;;;;;;;-141.29;100.00;58932.97;5074439;28;20500;-76
2022/01/02 07:36:24;;;;;;;8.87;6.60;;;;;;;-141.29;100.00;58932.97;5074645;28;20957;-76
2022/01/02 07:38:53;;;;;;;9.10;6.60;;;;;;;-141.29;100.00;58932.97;5074372;28;20228;-75
2022/01/02 07:41:22;;;;;;;10.60;6.60;;;;;;;-141.29;100.00;58932.97;5073251;28;20671;-75
2022/01/02 07:43:51;;;;;;;9.10;6.73;;;;;;;-141.29;100.00;58932.97;5074370;28;20898;-75
2022/01/02 07:46:23;;;;;;;8.77;6.10;;;;;;;-141.29;100.00;58932.97;5073906;28;20438;-74
2022/01/02 07:48:51;;;;;;;11.23;6.27;;;;;;;-141.29;100.00;58932.97;5072760;28;20203;-77
2022/01/02 07:51:20;;;;;;;7.27;5.90;;;;;;;-141.29;100.00;58932.97;5073956;28;20667;-76
2022/01/02 07:53:51;;;;;;;8.57;6.30;;;;;;;-141.29;100.00;58932.97;5074215;28;20277;-76
2022/01/02 07:56:18;;;;;;;7.90;6.00;;;;;;;-141.29;100.00;58932.97;5072771;28;20204;-75
2022/01/02 07:58:47;;;;;;;8.27;6.27;;;;;;;-141.29;100.00;58932.97;5073867;28;20486;-75
2022/01/02 08:01:14;;;;;;;9.87;6.17;;;;;;;-141.29;100.00;58932.97;5073778;28;20459;-75
2022/01/02 08:03:46;;;;;;;9.23;5.70;;;;;;;-141.29;100.00;58932.97;5073953;28;20532;-75
2022/01/02 08:06:16;;;;;;;7.43;5.90;;;;;;;-141.29;100.00;58932.97;5073936;28;20439;-75
2022/01/02 08:08:46;;;;;;;9.67;5.83;;;;;;;-141.29;100.00;58932.97;5072763;28;20454;-76
2022/01/02 08:11:15;;;;;;;6.30;5.30;;;;;;;-141.29;100.00;58932.97;5074366;28;20442;-77
2022/01/02 08:13:44;;;;;;;8.67;5.83;;;;;;;-141.29;100.00;58932.97;5073846;28;20470;-74
2022/01/02 08:16:24;;;;;;;9.33;6.20;;;;;;;-141.29;100.00;58932.97;5073714;28;20488;-75
2022/01/02 08:18:55;;;;;;;8.80;5.47;;;;;;;-141.29;100.00;58932.97;5073626;28;20527;-74
2022/01/02 08:21:22;;;;;;;7.77;6.00;;;;;;;-141.29;100.00;58932.97;5074055;28;20529;-75
2022/01/02 08:23:49;;;;;;;8.57;6.10;;;;;;;-141.29;100.00;58932.97;5073342;28;20438;-76
2022/01/02 08:26:18;;;;;;;7.80;5.90;;;;;;;-141.29;100.00;58932.97;5073822;28;20873;-77
2022/01/02 08:28:47;;;;;;;7.40;5.70;;;;;;;-141.29;100.00;58932.97;5073013;28;20454;-74
2022/01/02 08:31:16;;;;;;;10.30;5.73;;;;;;;-141.29;100.00;58932.97;5073082;28;20833;-75
2022/01/02 08:33:43;;;;;;;7.53;5.90;;;;;;;-141.29;100.00;58932.97;5073239;28;20494;-75
2022/01/02 08:36:11;;;;;;;11.63;6.07;;;;;;;-141.29;100.00;58932.97;5073166;28;20937;-76
2022/01/02 08:38:38;;;;;;;7.40;5.30;;;;;;;-141.29;100.00;58932.97;5073912;28;20479;-75
2022/01/02 08:41:06;;;;;;;7.93;5.20;;;;;;;-141.29;100.00;58932.97;5073752;28;20434;-74
2022/01/02 08:43:34;;;;;;;7.20;5.20;;;;;;;-141.29;100.00;58932.97;5076972;28;20988;-74
2022/01/02 08:46:01;;;;;;;7.50;5.23;;;;;;;-141.29;100.00;58932.97;5073928;28;20437;-76
2022/01/02 08:48:33;;;;;;;6.27;5.23;;;;;;;-141.29;100.00;58932.97;5072834;28;20520;-76
2022/01/02 08:51:03;;;;;;;7.80;5.20;;;;;;;-141.29;100.00;58932.97;5073608;28;20203;-77
2022/01/02 08:53:34;;;;;;;6.60;5.07;;;;;;;-141.29;100.00;58932.97;5072024;28;20449;-73
2022/01/02 08:56:03;;;;;;;7.37;5.33;;;;;;;-141.29;100.00;58932.97;5072879;28;20435;-76
2022/01/02 08:58:32;;;;;;;8.67;6.20;;;;;;;-141.29;100.00;58932.97;5073046;28;20462;-74
2022/01/02 09:01:00;;;;;;;6.60;4.47;;;;;;;-141.29;100.00;58932.97;5072720;28;20212;-76
2022/01/02 09:03:27;;;;;;;8.10;4.87;;;;;;;-141.29;100.00;58932.97;5072928;28;20231;-76
2022/01/02 09:05:56;;;;;;;8.53;5.07;;;;;;;-141.29;100.00;58932.97;5072504;28;20998;-74
2022/01/02 09:08:24;;;;;;;7.53;4.63;;;;;;;-141.29;100.00;58932.97;5072515;28;20434;-75
2022/01/02 09:10:52;;;;;;;7.00;4.83;;;;;;;-141.29;100.00;58932.97;5072737;28;20196;-77
2022/01/02 09:13:20;;;;;;;7.47;4.47;;;;;;;-141.29;100.00;58932.97;5071187;28;20438;-75
2022/01/02 09:15:49;;;;;;;6.70;4.90;;;;;;;-141.29;100.00;58932.97;5072862;28;20438;-74
2022/01/02 09:18:16;;;;;;;6.33;4.23;;;;;;;-141.29;100.00;58932.97;5072450;28;20204;-74
2022/01/02 09:20:44;;;;;;;5.60;4.73;;;;;;;-141.29;100.00;58932.97;5072463;28;20238;-75
2022/01/02 09:23:15;;;;;;;7.03;4.60;;;;;;;-141.29;100.00;58932.97;5072240;28;20466;-75
2022/01/02 09:25:43;;;;;;;8.27;4.60;;;;;;;-141.29;100.00;58932.97;5072594;28;20682;-75
2022/01/02 09:28:10;;;;;;;5.57;4.60;;;;;;;-141.29;100.00;58932.97;5073211;28;20438;-75
2022/01/02 09:30:40;;;;;;;9.63;5.03;;;;;;;-141.29;100.00;58932.97;5072345;28;20446;-75
2022/01/02 09:33:08;;;;;;;6.47;4.93;;;;;;;-141.29;100.00;58932.97;5072157;28;20426;-74
2022/01/02 09:35:38;;;;;;;6.03;4.23;;;;;;;-141.29;100.00;58932.97;5071960;28;20451;-75
2022/01/02 09:38:06;;;;;;;5.70;4.30;;;;;;;-141.29;100.00;58932.97;5072200;28;20287;-76
2022/01/02 09:40:44;;;;;;;5.40;4.50;;;;;;;-141.29;100.00;58932.97;5072083;28;21016;-77
2022/01/02 09:43:15;;;;;;;6.33;4.13;;;;;;;-141.29;100.00;58932.97;5071532;28;20236;-76
2022/01/02 09:45:46;;;;;;;7.23;4.70;;;;;;;-141.29;100.00;58932.97;5071842;28;20439;-74
2022/01/02 09:48:14;;;;;;;7.33;5.00;;;;;;;-141.29;100.00;58932.97;5071124;28;20206;-77
2022/01/02 09:50:43;;;;;;;10.10;5.63;;;;;;;-141.29;100.00;58932.97;5071812;28;20198;-76
2022/01/02 09:53:15;;;;;;;7.57;5.40;;;;;;;-141.29;100.00;58932.97;5071408;28;20748;-78
2022/01/02 09:55:50;;;;;;;7.07;5.50;;;;;;;-141.29;100.00;58932.97;5070934;28;20200;-74
2022/01/02 09:58:17;;;;;;;6.63;5.00;;;;;;;-141.29;100.00;58932.97;5070873;28;20282;-76
2022/01/02 10:00:47;;;;;;;7.13;4.87;;;;;;;-141.29;100.00;58932.97;5073581;28;21020;-76
2022/01/02 10:03:14;;;;;;;5.33;4.33;;;;;;;-141.29;100.00;58932.97;5074815;28;20220;-75
2022/01/02 10:05:52;;;;;;;6.00;4.20;;;;;;;-141.29;100.00;58932.97;5071770;28;20743;-74
2022/01/02 10:08:23;;;;;;;5.80;3.97;;;;;;;-141.29;100.00;58932.97;5071642;28;20674;-76
2022/01/02 10:11:05;;;;;;;7.40;5.00;;;;;;;-141.29;100.00;58932.97;5072194;28;20199;-76
2022/01/02 10:13:46;;;;;;;6.33;4.47;;;;;;;-141.29;100.00;58932.97;5071876;28;20199;-75
2022/01/02 10:16:25;;;;;;;6.13;4.63;;;;;;;-141.29;100.00;58932.97;5071894;28;20654;-75
2022/01/02 10:18:55;;;;;;;7.43;4.77;;;;;;;-141.29;100.00;58932.97;5072018;28;20269;-74
2022/01/02 10:21:41;;;;;;;7.43;4.67;;;;;;;-141.29;100.00;58932.97;5071943;28;20200;-75
2022/01/02 10:24:13;;;;;;;8.80;4.97;;;;;;;-141.29;100.00;58932.97;5071738;28;20215;-75
2022/01/02 10:26:43;;;;;;;7.00;4.50;;;;;;;-141.29;100.00;58932.97;5071764;28;20193;-76
2022/01/02 10:29:14;;;;;;;5.73;4.50;;;;;;;-141.29;100.00;58932.97;5071941;28;20204;-77
2022/01/02 10:31:42;;;;;;;8.23;4.90;;;;;;;-141.29;100.00;58932.97;5071751;28;20196;-74
2022/01/02 10:34:11;;;;;;;6.27;4.50;;;;;;;-141.29;100.00;58932.97;5071610;28;20275;-76
2022/01/02 10:36:45;;;;;;;7.50;4.10;;;;;;;-141.29;100.00;58932.97;5074041;28;20295;-76
2022/01/02 10:39:15;;;;;;;7.30;4.43;;;;;;;-141.29;100.00;58932.97;5076810;28;20638;-75
2022/01/02 10:41:47;;;;;;;5.53;3.73;;;;;;;-141.29;100.00;58932.97;5071665;28;20721;-75
2022/01/02 10:44:26;;;;;;;4.57;3.53;;;;;;;-141.29;100.00;58932.97;5071421;28;20240;-77
2022/01/02 10:47:14;;;;;;;4.30;3.40;;;;;;;-141.29;100.00;58932.97;5071562;28;20230;-74
2022/01/02 10:55:20;;;;;;;6.17;3.37;;;;;;;-141.29;100.00;58932.97;5080024;28;20204;-75
2022/01/02 10:57:51;;;;;;;4.67;3.07;;;;;;;-141.29;100.00;58932.97;5075770;28;20273;-74
2022/01/02 11:00:20;;;;;;;4.50;3.20;;;;;;;-141.29;100.00;58932.97;5075748;28;20236;-77
2022/01/02 11:02:48;;;;;;;3.40;2.90;;;;;;;-141.29;100.00;58932.97;5075047;28;20200;-76
2022/01/02 11:05:21;;;;;;;4.23;3.50;;;;;;;-141.29;100.00;58932.97;5075102;28;20202;-76
2022/01/02 11:07:50;;;;;;;3.50;3.20;;;;;;;-141.29;100.00;58932.97;5073742;28;20204;-75
2022/01/02 11:10:21;;;;;;;5.17;3.47;;;;;;;-141.29;100.00;58932.97;5074584;28;20204;-74
2022/01/02 11:12:51;;;;;;;5.03;2.80;;;;;;;-141.29;100.00;58932.97;5074726;28;20200;-75
2022/01/02 11:15:19;;;;;;;5.37;2.60;;;;;;;-141.29;100.00;58932.97;5073899;28;20207;-75
2022/01/02 11:17:50;;;;;;;4.30;2.30;;;;;;;-141.29;100.00;58932.97;5075021;28;20262;-74
2022/01/02 11:20:21;;;;;;;4.63;2.63;;;;;;;-141.29;100.00;58932.97;5074610;28;20572;-74
2022/01/02 11:22:56;;;;;;;5.20;3.50;;;;;;;-141.29;100.00;58932.97;5075075;28;20265;-73
2022/01/02 11:25:29;;;;;;;3.93;3.10;;;;;;;-141.29;100.00;58932.97;5074773;28;20576;-77
2022/01/02 11:28:10;;;;;;;3.63;3.00;;;;;;;-141.29;100.00;58932.97;5074329;28;20215;-75
2022/01/02 11:30:41;;;;;;;6.63;3.27;;;;;;;-141.29;100.00;58932.97;5074669;28;20238;-74